21:44
Airports
Links
Donate
Help keep this website running!
PayPal
Bitcoin
METAR
YSCB 162130Z 33007KT 9999 SCT035 07/03 Q1008 FM2130 MOD TURB BLW 5000FT
Current Weather Conditions at YSCB
VFR 21:30:00 16-08-17
Altimeter:29.76 hg
Temp:7.0°c 45°f
Dew point:3.0°c 37°f
Wind:7 knots, 8.1 mph, 4 m/s, from 330°
Visibility:6.21 statute miles
3500(SCT) Scattered
Past METAR reports
VFR 21:00:00 16-08-17
Altimeter:29.76 hg
Temp:6.0°c 43°f
Dew point:3.0°c 37°f
Wind:7 knots, 8.1 mph, 4 m/s, from 350°
Visibility:6.21 statute miles
3000(FEW) A few
YSCB 162100Z 35007KT 9999 FEW030 06/03 Q1008 FM2100 MOD TURB BLW 5000FT
VFR 20:30:00 16-08-17
Altimeter:29.76 hg
Temp:6.0°c 43°f
Dew point:3.0°c 37°f
Wind:12 knots, 13.8 mph, 6 m/s, from 350°
Visibility:6.21 statute miles
3000(SCT) Scattered
YSCB 162030Z 35012KT 9999 SCT030 06/03 Q1008
VFR 20:00:00 16-08-17
Altimeter:29.73 hg
Temp:6.0°c 43°f
Dew point:3.0°c 37°f
Wind:12 knots, 13.8 mph, 6 m/s, from 350°
Visibility:6.21 statute miles
(CAVOK)
YSCB 162000Z 35012KT CAVOK 06/03 Q1007 FM2000 MOD TURB BLW 5000FT
VFR 19:30:00 16-08-17
Altimeter:29.73 hg
Temp:6.0°c 43°f
Dew point:3.0°c 37°f
Wind:10 knots, 11.5 mph, 5 m/s, from 340°
Visibility:6.21 statute miles
(CAVOK)
YSCB 161930Z 34010KT CAVOK 06/03 Q1007 FM1930 MOD TURB BLW 5000FT
VFR 19:00:00 16-08-17
Altimeter:29.76 hg
Temp:6.0°c 43°f
Dew point:3.0°c 37°f
Wind:10 knots, 11.5 mph, 5 m/s, from 340°
Visibility:6.21 statute miles
(CAVOK)
YSCB 161900Z 34010KT CAVOK 06/03 Q1008 FM1900 MOD TURB BLW 5000FT
VFR 18:30:00 16-08-17
Altimeter:29.73 hg
Temp:6.0°c 43°f
Dew point:3.0°c 37°f
Wind:7 knots, 8.1 mph, 4 m/s, from 330°
Visibility:6.21 statute miles
(CAVOK)
YSCB 161830Z 33007KT CAVOK 06/03 Q1007
TAF
TAF YSCB 161744Z 1618/1718 31012KT 9999 FEW020 SCT030 BECMG 1623/1701 30022G34KT 9999 -SHRA SCT030 BECMG 1707/1708 30014KT 9999 -SHRA FEW020 SCT030 BKN045
Forecast at YSCB
18:00 16-08-17 to 23:00 16-08-17
Wind:12 Knots from 310°
Visibility:6.21 statute miles
2000FEW A few
3000SCT Scattered
BECMG 23:00 16-08-17 to 07:00 17-08-17
-SHRA
Wind:22 Knots from 300°
Visibility:6.21 statute miles
3000SCT Scattered
BECMG 07:00 17-08-17 to 18:00 17-08-17
-SHRA
Wind:14 Knots from 300°
Visibility:6.21 statute miles
2000FEW A few
3000SCT Scattered
4500BKN Broken